sensor_id;sensor_type;location;lat;lon;timestamp;pressure;altitude;pressure_sealevel;temperature;humidity
69221;BME280;56331;51.992;20.910;2023-02-21T00:00:03;98833.19;;;20.81;38.75
69221;BME280;56331;51.992;20.910;2023-02-21T00:02:50;98824.09;;;20.81;38.73
69221;BME280;56331;51.992;20.910;2023-02-21T00:05:35;98829.63;;;20.81;38.71
69221;BME280;56331;51.992;20.910;2023-02-21T00:08:20;98833.19;;;20.81;38.64
69221;BME280;56331;51.992;20.910;2023-02-21T00:11:04;98831.57;;;20.80;38.64
69221;BME280;56331;51.992;20.910;2023-02-21T00:13:49;98828.23;;;20.81;38.59
69221;BME280;56331;51.992;20.910;2023-02-21T00:16:34;98844.26;;;20.81;38.57
69221;BME280;56331;51.992;20.910;2023-02-21T00:19:19;98825.23;;;20.80;38.53
69221;BME280;56331;51.992;20.910;2023-02-21T00:22:03;98832.39;;;20.81;38.47
69221;BME280;56331;51.992;20.910;2023-02-21T00:24:51;98821.88;;;20.80;38.45
69221;BME280;56331;51.992;20.910;2023-02-21T00:27:36;98824.65;;;20.80;38.44
69221;BME280;56331;51.992;20.910;2023-02-21T00:30:21;98828.01;;;20.80;38.44
69221;BME280;56331;51.992;20.910;2023-02-21T00:33:06;98828.80;;;20.80;38.44
69221;BME280;56331;51.992;20.910;2023-02-21T00:35:51;98840.11;;;20.81;38.44
69221;BME280;56331;51.992;20.910;2023-02-21T00:38:36;98814.41;;;20.81;38.43
69221;BME280;56331;51.992;20.910;2023-02-21T00:41:23;98814.96;;;20.80;38.45
69221;BME280;56331;51.992;20.910;2023-02-21T00:44:08;98817.17;;;20.81;38.43
69221;BME280;56331;51.992;20.910;2023-02-21T00:46:52;98794.80;;;20.80;38.38
69221;BME280;56331;51.992;20.910;2023-02-21T00:49:37;98805.08;;;20.79;38.32
69221;BME280;56331;51.992;20.910;2023-02-21T00:52:22;98818.32;;;20.80;38.26
69221;BME280;56331;51.992;20.910;2023-02-21T00:55:07;98825.83;;;20.79;38.18
69221;BME280;56331;51.992;20.910;2023-02-21T00:57:52;98827.42;;;20.80;38.21
69221;BME280;56331;51.992;20.910;2023-02-21T01:00:37;98823.27;;;20.80;38.20
69221;BME280;56331;51.992;20.910;2023-02-21T01:03:21;98814.96;;;20.80;38.18
69221;BME280;56331;51.992;20.910;2023-02-21T01:06:10;98810.25;;;20.81;38.13
69221;BME280;56331;51.992;20.910;2023-02-21T01:08:55;98794.20;;;20.80;38.05
69221;BME280;56331;51.992;20.910;2023-02-21T01:11:40;98816.58;;;20.81;38.01
69221;BME280;56331;51.992;20.910;2023-02-21T01:14:25;98812.42;;;20.81;37.99
69221;BME280;56331;51.992;20.910;2023-02-21T01:17:10;98814.41;;;20.81;37.99
69221;BME280;56331;51.992;20.910;2023-02-21T01:19:55;98796.18;;;20.80;37.99
69221;BME280;56331;51.992;20.910;2023-02-21T01:22:40;98816.34;;;20.80;37.97
69221;BME280;56331;51.992;20.910;2023-02-21T01:25:25;98807.48;;;20.81;37.91
69221;BME280;56331;51.992;20.910;2023-02-21T01:28:10;98803.09;;;20.80;37.83
69221;BME280;56331;51.992;20.910;2023-02-21T01:30:55;98805.27;;;20.80;37.83
69221;BME280;56331;51.992;20.910;2023-02-21T01:33:40;98798.36;;;20.80;37.80
69221;BME280;56331;51.992;20.910;2023-02-21T01:36:26;98795.59;;;20.80;37.79
69221;BME280;56331;51.992;20.910;2023-02-21T01:39:11;98804.48;;;20.80;37.81
69221;BME280;56331;51.992;20.910;2023-02-21T01:41:56;98812.78;;;20.80;37.71
69221;BME280;56331;51.992;20.910;2023-02-21T01:44:43;98805.08;;;20.79;37.78
69221;BME280;56331;51.992;20.910;2023-02-21T01:47:40;98805.08;;;20.79;37.75
69221;BME280;56331;51.992;20.910;2023-02-21T01:50:28;98802.51;;;20.80;37.76
69221;BME280;56331;51.992;20.910;2023-02-21T01:53:22;98801.12;;;20.80;37.70
69221;BME280;56331;51.992;20.910;2023-02-21T01:56:08;98791.44;;;20.80;37.73
69221;BME280;56331;51.992;20.910;2023-02-21T01:58:56;98788.67;;;20.80;37.71
69221;BME280;56331;51.992;20.910;2023-02-21T02:04:48;98790.88;;;20.81;37.60
69221;BME280;56331;51.992;20.910;2023-02-21T02:07:35;98785.11;;;20.80;37.58
69221;BME280;56331;51.992;20.910;2023-02-21T02:10:20;98777.60;;;20.80;37.52
69221;BME280;56331;51.992;20.910;2023-02-21T02:16:11;98777.60;;;20.80;37.46
69221;BME280;56331;51.992;20.910;2023-02-21T02:24:29;98784.52;;;20.80;37.40
69221;BME280;56331;51.992;20.910;2023-02-21T02:40:56;98790.44;;;20.79;37.39
69221;BME280;56331;51.992;20.910;2023-02-21T02:43:24;98800.92;;;20.79;37.37
69221;BME280;56331;51.992;20.910;2023-02-21T02:45:56;98796.77;;;20.79;37.30
69221;BME280;56331;51.992;20.910;2023-02-21T02:50:54;98807.84;;;20.79;37.26
69221;BME280;56331;51.992;20.910;2023-02-21T02:53:25;98796.18;;;20.80;37.29
69221;BME280;56331;51.992;20.910;2023-02-21T02:55:51;98798.95;;;20.80;37.14
69221;BME280;56331;51.992;20.910;2023-02-21T02:58:20;98804.28;;;20.79;37.07
69221;BME280;56331;51.992;20.910;2023-02-21T03:03:32;98801.95;;;20.81;37.18
69221;BME280;56331;51.992;20.910;2023-02-21T03:06:12;98795.59;;;20.80;36.95
69221;BME280;56331;51.992;20.910;2023-02-21T03:08:53;98807.69;;;20.82;36.75
69221;BME280;56331;51.992;20.910;2023-02-21T03:11:22;98802.95;;;20.82;36.57
69221;BME280;56331;51.992;20.910;2023-02-21T03:13:50;98806.73;;;20.84;36.40
69221;BME280;56331;51.992;20.910;2023-02-21T03:16:30;98810.09;;;20.83;36.28
69221;BME280;56331;51.992;20.910;2023-02-21T03:19:11;98805.95;;;20.83;36.21
69221;BME280;56331;51.992;20.910;2023-02-21T03:21:41;98801.20;;;20.84;36.13
69221;BME280;56331;51.992;20.910;2023-02-21T03:24:10;98803.97;;;20.84;36.05
69221;BME280;56331;51.992;20.910;2023-02-21T03:26:41;98797.64;;;20.83;35.97
69221;BME280;56331;51.992;20.910;2023-02-21T03:29:08;98808.33;;;20.85;35.90
69221;BME280;56331;51.992;20.910;2023-02-21T03:31:39;98807.53;;;20.84;35.81
69221;BME280;56331;51.992;20.910;2023-02-21T03:34:05;98806.14;;;20.84;35.77
69221;BME280;56331;51.992;20.910;2023-02-21T03:36:32;98796.66;;;20.85;35.71
69221;BME280;56331;51.992;20.910;2023-02-21T03:38:59;98813.86;;;20.85;35.62
69221;BME280;56331;51.992;20.910;2023-02-21T03:41:25;98807.73;;;20.85;35.60
69221;BME280;56331;51.992;20.910;2023-02-21T03:43:52;98792.51;;;20.85;35.50
69221;BME280;56331;51.992;20.910;2023-02-21T03:46:18;98796.45;;;20.84;35.47
69221;BME280;56331;51.992;20.910;2023-02-21T03:48:44;98784.80;;;20.85;35.42
69221;BME280;56331;51.992;20.910;2023-02-21T03:51:11;98790.92;;;20.84;35.35
69221;BME280;56331;51.992;20.910;2023-02-21T03:53:37;98789.97;;;20.86;35.28
69221;BME280;56331;51.992;20.910;2023-02-21T03:56:04;98807.38;;;20.87;35.25
69221;BME280;56331;51.992;20.910;2023-02-21T03:58:31;98792.15;;;20.87;35.16
69221;BME280;56331;51.992;20.910;2023-02-21T04:00:57;98799.43;;;20.85;35.10
69221;BME280;56331;51.992;20.910;2023-02-21T04:03:24;98804.61;;;20.87;35.07
69221;BME280;56331;51.992;20.910;2023-02-21T04:05:54;98792.51;;;20.85;35.28
69221;BME280;56331;51.992;20.910;2023-02-21T04:08:23;98798.64;;;20.85;35.37
69221;BME280;56331;51.992;20.910;2023-02-21T04:10:50;98792.90;;;20.84;35.35
69221;BME280;56331;51.992;20.910;2023-02-21T04:13:16;98791.28;;;20.83;35.33
69221;BME280;56331;51.992;20.910;2023-02-21T04:15:47;98793.05;;;20.81;35.30
69221;BME280;56331;51.992;20.910;2023-02-21T04:18:13;98799.18;;;20.81;35.28
69221;BME280;56331;51.992;20.910;2023-02-21T04:20:39;98788.67;;;20.80;35.34
69221;BME280;56331;51.992;20.910;2023-02-21T04:23:06;98793.05;;;20.81;35.31
69221;BME280;56331;51.992;20.910;2023-02-21T04:25:32;98785.91;;;20.80;35.32
69221;BME280;56331;51.992;20.910;2023-02-21T04:27:58;98795.03;;;20.81;35.38
69221;BME280;56331;51.992;20.910;2023-02-21T04:30:25;98790.05;;;20.80;35.34
69221;BME280;56331;51.992;20.910;2023-02-21T04:32:51;98800.56;;;20.81;35.31
69221;BME280;56331;51.992;20.910;2023-02-21T04:35:21;98807.25;;;20.80;35.31
69221;BME280;56331;51.992;20.910;2023-02-21T04:37:47;98803.09;;;20.80;35.24
69221;BME280;56331;51.992;20.910;2023-02-21T04:40:14;98809.23;;;20.79;35.19
69221;BME280;56331;51.992;20.910;2023-02-21T04:42:40;98804.87;;;20.78;35.19
69221;BME280;56331;51.992;20.910;2023-02-21T04:45:07;98807.05;;;20.79;35.17
69221;BME280;56331;51.992;20.910;2023-02-21T04:47:34;98810.41;;;20.78;35.16
69221;BME280;56331;51.992;20.910;2023-02-21T04:50:00;98809.02;;;20.78;35.12
69221;BME280;56331;51.992;20.910;2023-02-21T04:52:26;98804.05;;;20.78;35.16
69221;BME280;56331;51.992;20.910;2023-02-21T04:54:53;98807.64;;;20.78;35.17
69221;BME280;56331;51.992;20.910;2023-02-21T04:57:19;98798.52;;;20.78;35.17
69221;BME280;56331;51.992;20.910;2023-02-21T04:59:46;98813.73;;;20.78;35.18
69221;BME280;56331;51.992;20.910;2023-02-21T05:02:12;98796.34;;;20.77;35.18
69221;BME280;56331;51.992;20.910;2023-02-21T05:04:39;98819.06;;;20.76;35.14
69221;BME280;56331;51.992;20.910;2023-02-21T05:07:05;98828.16;;;20.77;35.21
69221;BME280;56331;51.992;20.910;2023-02-21T05:09:34;98836.27;;;20.76;35.16
69221;BME280;56331;51.992;20.910;2023-02-21T05:12:04;98833.70;;;20.77;35.14
69221;BME280;56331;51.992;20.910;2023-02-21T05:14:33;98851.69;;;20.77;35.09
69221;BME280;56331;51.992;20.910;2023-02-21T05:17:01;98843.77;;;20.75;35.12
69221;BME280;56331;51.992;20.910;2023-02-21T05:19:27;98845.36;;;20.76;35.10
69221;BME280;56331;51.992;20.910;2023-02-21T05:21:59;98836.27;;;20.76;35.19
69221;BME280;56331;51.992;20.910;2023-02-21T05:24:25;98826.58;;;20.76;35.27
69221;BME280;56331;51.992;20.910;2023-02-21T05:26:52;98834.87;;;20.76;35.20
69221;BME280;56331;51.992;20.910;2023-02-21T05:29:19;98834.28;;;20.76;35.12
69221;BME280;56331;51.992;20.910;2023-02-21T05:31:46;98827.96;;;20.76;35.10
69221;BME280;56331;51.992;20.910;2023-02-21T05:34:14;98833.70;;;20.77;35.05
69221;BME280;56331;51.992;20.910;2023-02-21T05:36:41;98832.11;;;20.76;35.13
69221;BME280;56331;51.992;20.910;2023-02-21T05:39:09;98837.26;;;20.78;35.11
69221;BME280;56331;51.992;20.910;2023-02-21T05:41:37;98837.64;;;20.76;35.11
69221;BME280;56331;51.992;20.910;2023-02-21T05:44:03;98852.08;;;20.75;35.06
69221;BME280;56331;51.992;20.910;2023-02-21T05:46:36;98860.38;;;20.75;35.10
69221;BME280;56331;51.992;20.910;2023-02-21T05:49:03;98865.09;;;20.75;35.06
69221;BME280;56331;51.992;20.910;2023-02-21T05:51:37;98859.78;;;20.76;35.10
69221;BME280;56331;51.992;20.910;2023-02-21T05:54:06;98876.39;;;20.76;35.08
69221;BME280;56331;51.992;20.910;2023-02-21T05:56:40;98872.00;;;20.75;35.07
69221;BME280;56331;51.992;20.910;2023-02-21T05:59:08;98864.73;;;20.76;35.03
69221;BME280;56331;51.992;20.910;2023-02-21T06:01:34;98862.55;;;20.76;35.04
69221;BME280;56331;51.992;20.910;2023-02-21T06:04:01;98869.47;;;20.76;35.01
69221;BME280;56331;51.992;20.910;2023-02-21T06:06:28;98869.67;;;20.77;34.78
69221;BME280;56331;51.992;20.910;2023-02-21T06:08:55;98869.08;;;20.78;34.59
69221;BME280;56331;51.992;20.910;2023-02-21T06:11:27;98892.25;;;20.79;34.48
69221;BME280;56331;51.992;20.910;2023-02-21T06:13:56;98889.13;;;20.81;34.30
69221;BME280;56331;51.992;20.910;2023-02-21T06:16:23;98867.94;;;20.79;34.18
69221;BME280;56331;51.992;20.910;2023-02-21T06:18:55;98882.77;;;20.80;34.08
69221;BME280;56331;51.992;20.910;2023-02-21T06:21:22;98893.28;;;20.81;33.98
69221;BME280;56331;51.992;20.910;2023-02-21T06:23:49;98884.39;;;20.81;33.91
69221;BME280;56331;51.992;20.910;2023-02-21T06:26:17;98901.58;;;20.81;33.78
69221;BME280;56331;51.992;20.910;2023-02-21T06:28:43;98864.22;;;20.81;33.71
69221;BME280;56331;51.992;20.910;2023-02-21T06:31:10;98869.16;;;20.81;33.65
69221;BME280;56331;51.992;20.910;2023-02-21T06:33:37;98863.63;;;20.81;33.57
69221;BME280;56331;51.992;20.910;2023-02-21T06:36:12;98869.37;;;20.82;33.54
69221;BME280;56331;51.992;20.910;2023-02-21T06:38:36;98876.29;;;20.82;33.44
69221;BME280;56331;51.992;20.910;2023-02-21T06:41:07;98869.37;;;20.82;33.38
69221;BME280;56331;51.992;20.910;2023-02-21T06:43:34;98873.52;;;20.82;33.35
69221;BME280;56331;51.992;20.910;2023-02-21T06:46:04;98868.58;;;20.82;33.36
69221;BME280;56331;51.992;20.910;2023-02-21T06:48:30;98882.62;;;20.83;33.33
69221;BME280;56331;51.992;20.910;2023-02-21T06:50:57;98897.84;;;20.83;33.28
69221;BME280;56331;51.992;20.910;2023-02-21T06:53:24;98903.97;;;20.82;33.34
69221;BME280;56331;51.992;20.910;2023-02-21T06:55:51;98903.97;;;20.82;33.26
69221;BME280;56331;51.992;20.910;2023-02-21T06:58:17;98903.37;;;20.83;33.22
69221;BME280;56331;51.992;20.910;2023-02-21T07:00:44;98899.81;;;20.82;33.23
69221;BME280;56331;51.992;20.910;2023-02-21T07:03:10;98908.91;;;20.83;33.21
69221;BME280;56331;51.992;20.910;2023-02-21T07:05:37;98911.91;;;20.84;33.19
69221;BME280;56331;51.992;20.910;2023-02-21T07:08:04;98906.97;;;20.83;33.10
69221;BME280;56331;51.992;20.910;2023-02-21T07:10:31;98916.86;;;20.84;33.16
69221;BME280;56331;51.992;20.910;2023-02-21T07:12:58;98916.66;;;20.83;33.16
69221;BME280;56331;51.992;20.910;2023-02-21T07:15:24;98917.45;;;20.84;33.21
69221;BME280;56331;51.992;20.910;2023-02-21T07:17:51;98926.34;;;20.83;33.27
69221;BME280;56331;51.992;20.910;2023-02-21T07:20:17;98959.31;;;20.82;33.36
69221;BME280;56331;51.992;20.910;2023-02-21T07:22:44;98942.71;;;20.82;33.43
69221;BME280;56331;51.992;20.910;2023-02-21T07:25:15;98947.09;;;20.83;33.47
69221;BME280;56331;51.992;20.910;2023-02-21T07:27:46;98947.09;;;20.83;33.53
69221;BME280;56331;51.992;20.910;2023-02-21T07:30:13;98957.34;;;20.83;33.60
69221;BME280;56331;51.992;20.910;2023-02-21T07:32:39;98949.05;;;20.83;33.74
69221;BME280;56331;51.992;20.910;2023-02-21T07:35:06;98966.47;;;20.83;33.79
69221;BME280;56331;51.992;20.910;2023-02-21T07:37:33;98952.05;;;20.84;33.74
69221;BME280;56331;51.992;20.910;2023-02-21T07:39:59;98972.22;;;20.84;33.77
69221;BME280;56331;51.992;20.910;2023-02-21T07:42:25;98979.13;;;20.84;33.81
69221;BME280;56331;51.992;20.910;2023-02-21T07:44:56;98982.49;;;20.84;33.80
69221;BME280;56331;51.992;20.910;2023-02-21T07:47:24;98987.44;;;20.84;33.74
69221;BME280;56331;51.992;20.910;2023-02-21T07:49:53;98995.73;;;20.84;33.74
69221;BME280;56331;51.992;20.910;2023-02-21T07:52:21;98999.09;;;20.84;33.75
69221;BME280;56331;51.992;20.910;2023-02-21T07:54:48;99010.96;;;20.84;33.74
69221;BME280;56331;51.992;20.910;2023-02-21T07:57:17;99013.73;;;20.84;33.73
69221;BME280;56331;51.992;20.910;2023-02-21T07:59:44;99025.59;;;20.85;33.74
69221;BME280;56331;51.992;20.910;2023-02-21T08:02:11;99024.22;;;20.85;33.81
69221;BME280;56331;51.992;20.910;2023-02-21T08:04:38;99040.03;;;20.84;34.20
69221;BME280;56331;51.992;20.910;2023-02-21T08:07:05;99025.39;;;20.84;34.53
69221;BME280;56331;51.992;20.910;2023-02-21T08:09:33;99030.13;;;20.83;34.81
69221;BME280;56331;51.992;20.910;2023-02-21T08:11:59;99045.56;;;20.84;35.03
69221;BME280;56331;51.992;20.910;2023-02-21T08:14:26;99037.05;;;20.83;35.07
69221;BME280;56331;51.992;20.910;2023-02-21T08:16:52;99040.61;;;20.84;35.14
69221;BME280;56331;51.992;20.910;2023-02-21T08:19:19;99046.15;;;20.84;35.17
69221;BME280;56331;51.992;20.910;2023-02-21T08:21:48;99054.80;;;20.82;35.25
69221;BME280;56331;51.992;20.910;2023-02-21T08:24:19;99055.05;;;20.83;35.40
69221;BME280;56331;51.992;20.910;2023-02-21T08:26:45;99047.89;;;20.82;35.40
69221;BME280;56331;51.992;20.910;2023-02-21T08:29:13;99057.58;;;20.82;35.44
69221;BME280;56331;51.992;20.910;2023-02-21T08:31:40;99058.16;;;20.82;35.77
69221;BME280;56331;51.992;20.910;2023-02-21T08:34:08;99076.16;;;20.82;36.01
69221;BME280;56331;51.992;20.910;2023-02-21T08:36:37;99063.34;;;20.83;36.16
69221;BME280;56331;51.992;20.910;2023-02-21T08:39:05;99080.75;;;20.84;36.25
69221;BME280;56331;51.992;20.910;2023-02-21T08:41:40;99079.22;;;20.86;36.33
69221;BME280;56331;51.992;20.910;2023-02-21T08:44:11;99086.00;;;20.89;36.41
69221;BME280;56331;51.992;20.910;2023-02-21T08:46:41;99093.71;;;20.89;36.47
69221;BME280;56331;51.992;20.910;2023-02-21T08:49:08;99095.30;;;20.90;36.52
69221;BME280;56331;51.992;20.910;2023-02-21T08:51:35;99128.31;;;20.89;36.55
69221;BME280;56331;51.992;20.910;2023-02-21T08:54:02;99112.30;;;20.89;36.94
69221;BME280;56331;51.992;20.910;2023-02-21T08:56:29;99122.19;;;20.90;37.00
69221;BME280;56331;51.992;20.910;2023-02-21T08:58:55;99126.92;;;20.89;36.87
69221;BME280;56331;51.992;20.910;2023-02-21T09:01:23;99117.38;;;20.87;36.76
69221;BME280;56331;51.992;20.910;2023-02-21T09:03:50;99120.74;;;20.86;36.88
69221;BME280;56331;51.992;20.910;2023-02-21T09:06:17;99130.43;;;20.86;36.97
69221;BME280;56331;51.992;20.910;2023-02-21T09:08:43;99131.58;;;20.85;37.11
69221;BME280;56331;51.992;20.910;2023-02-21T09:11:10;99138.73;;;20.86;37.10
69221;BME280;56331;51.992;20.910;2023-02-21T09:13:36;99130.78;;;20.85;37.13
69221;BME280;56331;51.992;20.910;2023-02-21T09:16:03;99143.23;;;20.85;37.27
69221;BME280;56331;51.992;20.910;2023-02-21T09:18:32;99140.91;;;20.87;37.71
69221;BME280;56331;51.992;20.910;2023-02-21T09:20:59;99141.70;;;20.87;38.45
69221;BME280;56331;51.992;20.910;2023-02-21T09:23:28;99148.28;;;20.89;38.78
69221;BME280;56331;51.992;20.910;2023-02-21T09:25:55;99150.46;;;20.89;38.81
69221;BME280;56331;51.992;20.910;2023-02-21T09:28:21;99152.50;;;20.92;38.81
69221;BME280;56331;51.992;20.910;2023-02-21T09:30:49;99157.44;;;20.93;38.80
69221;BME280;56331;51.992;20.910;2023-02-21T09:33:16;99152.73;;;20.93;38.84
69221;BME280;56331;51.992;20.910;2023-02-21T09:35:43;99146.23;;;20.95;38.73
69221;BME280;56331;51.992;20.910;2023-02-21T09:38:09;99153.39;;;20.96;38.44
69221;BME280;56331;51.992;20.910;2023-02-21T09:40:50;99144.48;;;20.97;38.12
69221;BME280;56331;51.992;20.910;2023-02-21T09:43:43;99148.05;;;20.97;37.52
69221;BME280;56331;51.992;20.910;2023-02-21T09:45:53;99146.67;;;20.97;37.37
69221;BME280;56331;51.992;20.910;2023-02-21T09:48:21;99154.63;;;20.99;37.55
69221;BME280;56331;51.992;20.910;2023-02-21T09:50:52;99152.66;;;21.00;37.51
69221;BME280;56331;51.992;20.910;2023-02-21T09:53:26;99146.73;;;21.01;37.44
69221;BME280;56331;51.992;20.910;2023-02-21T09:55:49;99156.07;;;21.03;37.28
69221;BME280;56331;51.992;20.910;2023-02-21T09:58:17;99165.32;;;21.01;36.94
69221;BME280;56331;51.992;20.910;2023-02-21T10:00:45;99147.77;;;21.03;36.32
69221;BME280;56331;51.992;20.910;2023-02-21T10:03:37;99180.41;;;21.03;35.78
69221;BME280;56331;51.992;20.910;2023-02-21T10:06:09;99171.51;;;21.04;35.50
69221;BME280;56331;51.992;20.910;2023-02-21T10:13:42;99187.98;;;21.06;34.94
69221;BME280;56331;51.992;20.910;2023-02-21T10:16:38;99190.75;;;21.06;34.73
69221;BME280;56331;51.992;20.910;2023-02-21T10:19:06;99192.95;;;21.07;34.73
69221;BME280;56331;51.992;20.910;2023-02-21T10:21:36;99197.32;;;21.08;34.60
69221;BME280;56331;51.992;20.910;2023-02-21T10:24:12;99198.11;;;21.08;34.58
69221;BME280;56331;51.992;20.910;2023-02-21T10:26:43;99200.53;;;21.10;34.61
69221;BME280;56331;51.992;20.910;2023-02-21T10:29:19;99210.22;;;21.10;34.64
69221;BME280;56331;51.992;20.910;2023-02-21T10:31:45;99212.41;;;21.10;35.46
69221;BME280;56331;51.992;20.910;2023-02-21T10:34:21;99207.66;;;21.11;35.96
69221;BME280;56331;51.992;20.910;2023-02-21T10:36:45;99219.53;;;21.11;36.52
69221;BME280;56331;51.992;20.910;2023-02-21T10:39:16;99216.20;;;21.12;36.87
69221;BME280;56331;51.992;20.910;2023-02-21T10:41:42;99233.62;;;21.12;37.10
69221;BME280;56331;51.992;20.910;2023-02-21T10:44:24;99223.92;;;21.12;37.21
69221;BME280;56331;51.992;20.910;2023-02-21T10:47:07;99223.92;;;21.12;37.09
69221;BME280;56331;51.992;20.910;2023-02-21T10:49:38;99218.59;;;21.13;36.95
69221;BME280;56331;51.992;20.910;2023-02-21T10:52:12;99230.70;;;21.15;36.87
69221;BME280;56331;51.992;20.910;2023-02-21T10:54:39;99221.61;;;21.14;36.83
69221;BME280;56331;51.992;20.910;2023-02-21T10:57:07;99233.48;;;21.15;36.59
69221;BME280;56331;51.992;20.910;2023-02-21T10:59:37;99229.67;;;21.13;36.49
69221;BME280;56331;51.992;20.910;2023-02-21T11:05:12;99237.39;;;21.14;36.29
69221;BME280;56331;51.992;20.910;2023-02-21T11:07:36;99239.81;;;21.15;36.17
69221;BME280;56331;51.992;20.910;2023-02-21T11:12:51;99242.23;;;21.17;35.89
69221;BME280;56331;51.992;20.910;2023-02-21T11:15:15;99241.05;;;21.18;35.78
69221;BME280;56331;51.992;20.910;2023-02-21T11:17:42;99260.66;;;21.19;35.68
69221;BME280;56331;51.992;20.910;2023-02-21T11:22:43;99257.47;;;21.17;35.53
69221;BME280;56331;51.992;20.910;2023-02-21T11:30:26;99257.81;;;21.15;35.30
69221;BME280;56331;51.992;20.910;2023-02-21T11:32:56;99264.39;;;21.17;35.18
69221;BME280;56331;51.992;20.910;2023-02-21T11:35:25;99266.57;;;21.17;35.14
69221;BME280;56331;51.992;20.910;2023-02-21T11:37:53;99265.19;;;21.17;35.07
69221;BME280;56331;51.992;20.910;2023-02-21T11:40:27;99258.84;;;21.17;34.95
69221;BME280;56331;51.992;20.910;2023-02-21T11:42:50;99268.30;;;21.16;35.00
69221;BME280;56331;51.992;20.910;2023-02-21T11:45:20;99268.30;;;21.16;34.93
69221;BME280;56331;51.992;20.910;2023-02-21T11:47:52;99271.07;;;21.16;34.87
69221;BME280;56331;51.992;20.910;2023-02-21T11:50:21;99259.99;;;21.16;34.85
69221;BME280;56331;51.992;20.910;2023-02-21T11:52:47;99258.84;;;21.17;34.80
69221;BME280;56331;51.992;20.910;2023-02-21T11:55:14;99277.79;;;21.15;34.96
69221;BME280;56331;51.992;20.910;2023-02-21T12:10:48;99300.39;;;21.17;36.11
69221;BME280;56331;51.992;20.910;2023-02-21T12:13:26;99294.85;;;21.17;36.09
69221;BME280;56331;51.992;20.910;2023-02-21T12:23:38;99304.96;;;21.19;35.80
69221;BME280;56331;51.992;20.910;2023-02-21T12:28:46;99298.04;;;21.19;35.75
69221;BME280;56331;51.992;20.910;2023-02-21T12:36:07;99300.59;;;21.18;35.69
69221;BME280;56331;51.992;20.910;2023-02-21T12:38:38;99318.47;;;21.20;35.65
69221;BME280;56331;51.992;20.910;2023-02-21T12:51:37;99321.23;;;21.20;35.50
69221;BME280;56331;51.992;20.910;2023-02-21T12:54:09;99315.91;;;21.22;35.54
69221;BME280;56331;51.992;20.910;2023-02-21T12:56:37;99317.88;;;21.21;35.74
69221;BME280;56331;51.992;20.910;2023-02-21T12:59:22;99317.66;;;21.20;36.18
69221;BME280;56331;51.992;20.910;2023-02-21T13:01:39;99312.72;;;21.19;36.42
69221;BME280;56331;51.992;20.910;2023-02-21T13:07:00;99323.20;;;21.20;36.73
69221;BME280;56331;51.992;20.910;2023-02-21T13:09:33;99317.66;;;21.20;36.67
69221;BME280;56331;51.992;20.910;2023-02-21T13:12:04;99324.00;;;21.20;36.57
69221;BME280;56331;51.992;20.910;2023-02-21T13:14:37;99336.47;;;21.20;36.50
69221;BME280;56331;51.992;20.910;2023-02-21T13:17:02;99344.56;;;21.19;36.41
69221;BME280;56331;51.992;20.910;2023-02-21T13:19:35;99355.64;;;21.19;36.31
69221;BME280;56331;51.992;20.910;2023-02-21T13:26:59;99358.17;;;21.18;36.02
69221;BME280;56331;51.992;20.910;2023-02-21T13:29:24;99358.55;;;21.17;36.06
69221;BME280;56331;51.992;20.910;2023-02-21T13:32:00;99362.47;;;21.16;36.01
69221;BME280;56331;51.992;20.910;2023-02-21T13:34:26;99360.14;;;21.18;35.96
69221;BME280;56331;51.992;20.910;2023-02-21T13:36:53;99370.88;;;21.19;35.87
69221;BME280;56331;51.992;20.910;2023-02-21T13:39:21;99362.12;;;21.17;35.80
69221;BME280;56331;51.992;20.910;2023-02-21T13:44:24;99375.97;;;21.17;35.74
69221;BME280;56331;51.992;20.910;2023-02-21T13:46:57;99370.05;;;21.19;35.75
69221;BME280;56331;51.992;20.910;2023-02-21T13:57:34;99380.57;;;21.19;35.50
69221;BME280;56331;51.992;20.910;2023-02-21T13:59:57;99380.57;;;21.19;35.40
69221;BME280;56331;51.992;20.910;2023-02-21T14:02:27;99397.19;;;21.19;35.35
69221;BME280;56331;51.992;20.910;2023-02-21T14:07:47;99412.42;;;21.19;35.23
69221;BME280;56331;51.992;20.910;2023-02-21T14:10:25;99397.53;;;21.18;35.19
69221;BME280;56331;51.992;20.910;2023-02-21T14:12:55;99397.75;;;21.19;35.14
69221;BME280;56331;51.992;20.910;2023-02-21T14:15:22;99404.33;;;21.20;35.06
69221;BME280;56331;51.992;20.910;2023-02-21T14:17:49;99407.69;;;21.20;35.06
69221;BME280;56331;51.992;20.910;2023-02-21T14:20:16;99401.34;;;21.19;34.99
69221;BME280;56331;51.992;20.910;2023-02-21T14:22:48;99411.59;;;21.19;35.00
69221;BME280;56331;51.992;20.910;2023-02-21T14:25:19;99407.44;;;21.19;35.32
69221;BME280;56331;51.992;20.910;2023-02-21T14:27:48;99408.83;;;21.19;36.99
69221;BME280;56331;51.992;20.910;2023-02-21T14:30:26;99409.20;;;21.17;37.94
69221;BME280;56331;51.992;20.910;2023-02-21T14:32:51;99411.38;;;21.18;38.32
69221;BME280;56331;51.992;20.910;2023-02-21T14:35:21;99419.69;;;21.18;37.92
69221;BME280;56331;51.992;20.910;2023-02-21T14:43:05;99427.66;;;21.19;37.63
69221;BME280;56331;51.992;20.910;2023-02-21T14:45:40;99423.71;;;21.20;37.51
69221;BME280;56331;51.992;20.910;2023-02-21T14:48:15;99427.66;;;21.19;37.44
69221;BME280;56331;51.992;20.910;2023-02-21T14:56:22;99433.41;;;21.20;37.81
69221;BME280;56331;51.992;20.910;2023-02-21T15:01:20;99438.36;;;21.21;37.75
69221;BME280;56331;51.992;20.910;2023-02-21T15:03:47;99439.74;;;21.21;37.70
69221;BME280;56331;51.992;20.910;2023-02-21T15:06:16;99448.85;;;21.22;37.68
69221;BME280;56331;51.992;20.910;2023-02-21T15:08:44;99440.92;;;21.20;37.63
69221;BME280;56331;51.992;20.910;2023-02-21T15:11:18;99443.90;;;21.21;37.48
69221;BME280;56331;51.992;20.910;2023-02-21T15:13:41;99447.05;;;21.19;37.41